sensor_id;sensor_type;location;lat;lon;timestamp;temperature;humidity
34776;DHT22;20989;52.566;13.346;2022-08-03T00:01:44;26.70;44.00
34776;DHT22;20989;52.566;13.346;2022-08-03T00:04:45;26.70;44.10
34776;DHT22;20989;52.566;13.346;2022-08-03T00:07:46;26.70;44.10
34776;DHT22;20989;52.566;13.346;2022-08-03T00:10:47;26.70;44.10
34776;DHT22;20989;52.566;13.346;2022-08-03T00:13:47;26.70;44.10
34776;DHT22;20989;52.566;13.346;2022-08-03T00:16:48;26.60;44.00
34776;DHT22;20989;52.566;13.346;2022-08-03T00:19:49;26.60;44.10
34776;DHT22;20989;52.566;13.346;2022-08-03T00:22:49;26.70;44.10
34776;DHT22;20989;52.566;13.346;2022-08-03T00:25:50;26.70;44.10
34776;DHT22;20989;52.566;13.346;2022-08-03T00:28:51;26.70;44.10
34776;DHT22;20989;52.566;13.346;2022-08-03T00:31:52;26.60;44.10
34776;DHT22;20989;52.566;13.346;2022-08-03T00:34:52;26.60;44.00
34776;DHT22;20989;52.566;13.346;2022-08-03T00:37:53;26.60;44.10
34776;DHT22;20989;52.566;13.346;2022-08-03T00:40:53;26.60;44.00
34776;DHT22;20989;52.566;13.346;2022-08-03T00:43:55;26.70;44.10
34776;DHT22;20989;52.566;13.346;2022-08-03T00:46:55;26.60;44.10
34776;DHT22;20989;52.566;13.346;2022-08-03T00:49:57;26.60;44.10
34776;DHT22;20989;52.566;13.346;2022-08-03T00:52:58;26.60;44.10
34776;DHT22;20989;52.566;13.346;2022-08-03T00:55:59;26.60;44.10
34776;DHT22;20989;52.566;13.346;2022-08-03T00:59:00;26.60;44.10
34776;DHT22;20989;52.566;13.346;2022-08-03T01:02:01;26.60;44.00
34776;DHT22;20989;52.566;13.346;2022-08-03T01:05:02;26.60;44.60
34776;DHT22;20989;52.566;13.346;2022-08-03T01:14:43;26.60;44.10
34776;DHT22;20989;52.566;13.346;2022-08-03T01:17:48;26.60;44.60
34776;DHT22;20989;52.566;13.346;2022-08-03T01:20:55;26.60;44.10
34776;DHT22;20989;52.566;13.346;2022-08-03T01:27:28;26.60;44.20
34776;DHT22;20989;52.566;13.346;2022-08-03T01:30:32;26.60;44.10
34776;DHT22;20989;52.566;13.346;2022-08-03T01:33:39;26.60;44.10
34776;DHT22;20989;52.566;13.346;2022-08-03T01:36:51;26.60;44.10
34776;DHT22;20989;52.566;13.346;2022-08-03T01:39:55;26.60;44.10
34776;DHT22;20989;52.566;13.346;2022-08-03T01:42:59;26.50;44.00
34776;DHT22;20989;52.566;13.346;2022-08-03T01:46:02;26.60;44.10
34776;DHT22;20989;52.566;13.346;2022-08-03T01:49:06;26.60;44.10
34776;DHT22;20989;52.566;13.346;2022-08-03T01:52:10;26.60;44.10
34776;DHT22;20989;52.566;13.346;2022-08-03T01:55:12;26.60;44.10
34776;DHT22;20989;52.566;13.346;2022-08-03T01:58:15;26.60;44.10
34776;DHT22;20989;52.566;13.346;2022-08-03T02:01:20;26.60;44.10
34776;DHT22;20989;52.566;13.346;2022-08-03T02:04:22;26.60;44.10
34776;DHT22;20989;52.566;13.346;2022-08-03T02:07:25;26.50;44.10
34776;DHT22;20989;52.566;13.346;2022-08-03T02:10:28;26.50;44.10
34776;DHT22;20989;52.566;13.346;2022-08-03T02:13:29;26.60;44.10
34776;DHT22;20989;52.566;13.346;2022-08-03T02:16:33;26.60;44.20
34776;DHT22;20989;52.566;13.346;2022-08-03T02:19:35;26.50;44.00
34776;DHT22;20989;52.566;13.346;2022-08-03T02:22:38;26.50;44.00
34776;DHT22;20989;52.566;13.346;2022-08-03T02:25:49;26.50;44.10
34776;DHT22;20989;52.566;13.346;2022-08-03T02:28:51;26.50;44.10
34776;DHT22;20989;52.566;13.346;2022-08-03T02:31:53;26.50;44.10
34776;DHT22;20989;52.566;13.346;2022-08-03T02:34:58;26.50;44.00
34776;DHT22;20989;52.566;13.346;2022-08-03T02:38:02;26.50;44.10
34776;DHT22;20989;52.566;13.346;2022-08-03T02:41:07;26.50;44.10
34776;DHT22;20989;52.566;13.346;2022-08-03T02:44:11;26.50;44.10
34776;DHT22;20989;52.566;13.346;2022-08-03T02:47:12;26.50;44.10
34776;DHT22;20989;52.566;13.346;2022-08-03T02:50:16;26.50;44.10
34776;DHT22;20989;52.566;13.346;2022-08-03T02:53:18;26.50;44.10
34776;DHT22;20989;52.566;13.346;2022-08-03T02:56:21;26.50;44.10
34776;DHT22;20989;52.566;13.346;2022-08-03T02:59:22;26.50;44.10
34776;DHT22;20989;52.566;13.346;2022-08-03T03:02:24;26.50;44.10
34776;DHT22;20989;52.566;13.346;2022-08-03T03:05:27;26.50;44.10
34776;DHT22;20989;52.566;13.346;2022-08-03T03:08:28;26.50;44.10
34776;DHT22;20989;52.566;13.346;2022-08-03T03:11:29;26.50;44.10
34776;DHT22;20989;52.566;13.346;2022-08-03T03:14:31;26.50;44.10
34776;DHT22;20989;52.566;13.346;2022-08-03T03:17:34;26.50;44.10
34776;DHT22;20989;52.566;13.346;2022-08-03T03:20:38;26.50;44.60
34776;DHT22;20989;52.566;13.346;2022-08-03T03:23:40;26.50;44.10
34776;DHT22;20989;52.566;13.346;2022-08-03T03:26:42;26.50;44.10
34776;DHT22;20989;52.566;13.346;2022-08-03T03:29:43;26.40;44.00
34776;DHT22;20989;52.566;13.346;2022-08-03T03:32:44;26.50;44.10
34776;DHT22;20989;52.566;13.346;2022-08-03T03:35:45;26.50;44.10
34776;DHT22;20989;52.566;13.346;2022-08-03T03:38:46;26.50;44.10
34776;DHT22;20989;52.566;13.346;2022-08-03T03:41:47;26.50;44.10
34776;DHT22;20989;52.566;13.346;2022-08-03T03:44:48;26.50;44.10
34776;DHT22;20989;52.566;13.346;2022-08-03T03:47:49;26.50;44.10
34776;DHT22;20989;52.566;13.346;2022-08-03T03:50:50;26.50;44.10
34776;DHT22;20989;52.566;13.346;2022-08-03T03:53:57;26.50;44.10
34776;DHT22;20989;52.566;13.346;2022-08-03T03:56:57;26.50;44.10
34776;DHT22;20989;52.566;13.346;2022-08-03T03:59:58;26.50;44.10
34776;DHT22;20989;52.566;13.346;2022-08-03T04:02:59;26.50;44.10
34776;DHT22;20989;52.566;13.346;2022-08-03T04:05:59;26.40;44.00
34776;DHT22;20989;52.566;13.346;2022-08-03T04:09:19;26.50;44.10
34776;DHT22;20989;52.566;13.346;2022-08-03T04:12:38;26.40;44.00
34776;DHT22;20989;52.566;13.346;2022-08-03T04:15:40;26.50;44.10
34776;DHT22;20989;52.566;13.346;2022-08-03T04:18:43;26.40;44.10
34776;DHT22;20989;52.566;13.346;2022-08-03T04:21:50;26.40;44.10
34776;DHT22;20989;52.566;13.346;2022-08-03T04:25:03;26.40;44.10
34776;DHT22;20989;52.566;13.346;2022-08-03T04:28:04;26.50;44.10
34776;DHT22;20989;52.566;13.346;2022-08-03T04:31:06;26.40;44.10
34776;DHT22;20989;52.566;13.346;2022-08-03T04:34:07;26.40;44.10
34776;DHT22;20989;52.566;13.346;2022-08-03T04:37:13;26.50;44.20
34776;DHT22;20989;52.566;13.346;2022-08-03T04:40:21;26.40;44.10
34776;DHT22;20989;52.566;13.346;2022-08-03T04:43:22;26.40;44.10
34776;DHT22;20989;52.566;13.346;2022-08-03T04:46:36;26.40;44.10
34776;DHT22;20989;52.566;13.346;2022-08-03T04:49:37;26.40;44.10
34776;DHT22;20989;52.566;13.346;2022-08-03T04:52:39;26.40;44.10
34776;DHT22;20989;52.566;13.346;2022-08-03T04:55:40;26.40;44.10
34776;DHT22;20989;52.566;13.346;2022-08-03T04:58:40;26.40;44.10
34776;DHT22;20989;52.566;13.346;2022-08-03T05:01:41;26.40;44.10
34776;DHT22;20989;52.566;13.346;2022-08-03T05:04:42;26.40;44.10
34776;DHT22;20989;52.566;13.346;2022-08-03T05:07:45;26.40;44.10
34776;DHT22;20989;52.566;13.346;2022-08-03T05:10:46;26.40;44.10
34776;DHT22;20989;52.566;13.346;2022-08-03T05:13:47;26.40;44.10
34776;DHT22;20989;52.566;13.346;2022-08-03T05:16:48;26.40;44.10
34776;DHT22;20989;52.566;13.346;2022-08-03T05:19:49;26.40;44.10
34776;DHT22;20989;52.566;13.346;2022-08-03T05:22:49;26.40;44.10
34776;DHT22;20989;52.566;13.346;2022-08-03T05:25:50;26.40;44.10
34776;DHT22;20989;52.566;13.346;2022-08-03T05:28:50;26.40;44.20
34776;DHT22;20989;52.566;13.346;2022-08-03T05:31:52;26.40;44.10
34776;DHT22;20989;52.566;13.346;2022-08-03T05:34:52;26.50;44.20
34776;DHT22;20989;52.566;13.346;2022-08-03T05:37:53;26.50;44.30
34776;DHT22;20989;52.566;13.346;2022-08-03T05:40:54;26.50;44.20
34776;DHT22;20989;52.566;13.346;2022-08-03T05:43:55;26.40;44.10
34776;DHT22;20989;52.566;13.346;2022-08-03T05:46:56;26.40;44.10
34776;DHT22;20989;52.566;13.346;2022-08-03T05:49:57;26.40;44.10
34776;DHT22;20989;52.566;13.346;2022-08-03T05:52:58;26.40;44.10
34776;DHT22;20989;52.566;13.346;2022-08-03T05:55:58;26.40;44.10
34776;DHT22;20989;52.566;13.346;2022-08-03T05:58:59;26.40;44.10
34776;DHT22;20989;52.566;13.346;2022-08-03T06:02:00;26.40;44.10
34776;DHT22;20989;52.566;13.346;2022-08-03T06:05:00;26.40;44.10
34776;DHT22;20989;52.566;13.346;2022-08-03T06:08:02;26.40;44.60
34776;DHT22;20989;52.566;13.346;2022-08-03T06:11:03;26.40;44.10
34776;DHT22;20989;52.566;13.346;2022-08-03T06:14:04;26.40;44.20
34776;DHT22;20989;52.566;13.346;2022-08-03T06:17:04;26.40;44.10
34776;DHT22;20989;52.566;13.346;2022-08-03T06:20:05;26.40;44.10
34776;DHT22;20989;52.566;13.346;2022-08-03T06:23:06;26.40;44.10
34776;DHT22;20989;52.566;13.346;2022-08-03T06:26:06;26.40;44.20
34776;DHT22;20989;52.566;13.346;2022-08-03T06:29:07;26.40;44.10
34776;DHT22;20989;52.566;13.346;2022-08-03T06:32:08;26.40;44.10
34776;DHT22;20989;52.566;13.346;2022-08-03T06:35:09;26.40;44.10
34776;DHT22;20989;52.566;13.346;2022-08-03T06:38:09;26.40;44.10
34776;DHT22;20989;52.566;13.346;2022-08-03T06:41:10;26.40;44.10
34776;DHT22;20989;52.566;13.346;2022-08-03T06:44:11;26.40;44.10
34776;DHT22;20989;52.566;13.346;2022-08-03T06:47:12;26.40;44.00
34776;DHT22;20989;52.566;13.346;2022-08-03T06:50:12;26.40;44.00
34776;DHT22;20989;52.566;13.346;2022-08-03T06:53:13;26.40;44.00
34776;DHT22;20989;52.566;13.346;2022-08-03T06:56:14;26.40;44.00
34776;DHT22;20989;52.566;13.346;2022-08-03T06:59:14;26.40;44.10
34776;DHT22;20989;52.566;13.346;2022-08-03T07:02:15;26.50;44.10
34776;DHT22;20989;52.566;13.346;2022-08-03T07:05:17;26.50;44.10
34776;DHT22;20989;52.566;13.346;2022-08-03T07:08:18;26.50;44.10
34776;DHT22;20989;52.566;13.346;2022-08-03T07:11:19;26.40;44.00
34776;DHT22;20989;52.566;13.346;2022-08-03T07:14:20;26.50;44.10
34776;DHT22;20989;52.566;13.346;2022-08-03T07:17:20;26.50;44.10
34776;DHT22;20989;52.566;13.346;2022-08-03T07:20:21;26.40;44.00
34776;DHT22;20989;52.566;13.346;2022-08-03T07:23:22;26.50;44.10
34776;DHT22;20989;52.566;13.346;2022-08-03T07:26:23;26.50;44.00
34776;DHT22;20989;52.566;13.346;2022-08-03T07:29:24;26.40;44.00
34776;DHT22;20989;52.566;13.346;2022-08-03T07:32:25;26.50;44.00
34776;DHT22;20989;52.566;13.346;2022-08-03T07:35:25;26.50;44.00
34776;DHT22;20989;52.566;13.346;2022-08-03T07:38:26;26.50;44.00
34776;DHT22;20989;52.566;13.346;2022-08-03T07:41:27;26.50;44.00
34776;DHT22;20989;52.566;13.346;2022-08-03T07:44:27;26.50;44.00
34776;DHT22;20989;52.566;13.346;2022-08-03T07:47:30;26.50;44.00
34776;DHT22;20989;52.566;13.346;2022-08-03T07:50:31;26.50;43.90
34776;DHT22;20989;52.566;13.346;2022-08-03T07:53:31;26.50;44.40
34776;DHT22;20989;52.566;13.346;2022-08-03T07:56:32;26.50;43.90
34776;DHT22;20989;52.566;13.346;2022-08-03T07:59:33;26.60;43.90
34776;DHT22;20989;52.566;13.346;2022-08-03T08:02:34;26.50;43.90
34776;DHT22;20989;52.566;13.346;2022-08-03T08:05:35;26.50;43.80
34776;DHT22;20989;52.566;13.346;2022-08-03T08:08:37;26.60;44.00
34776;DHT22;20989;52.566;13.346;2022-08-03T08:11:38;26.50;43.80
34776;DHT22;20989;52.566;13.346;2022-08-03T08:14:38;26.50;43.80
34776;DHT22;20989;52.566;13.346;2022-08-03T08:20:46;26.60;43.90
34776;DHT22;20989;52.566;13.346;2022-08-03T08:23:47;26.60;44.40
34776;DHT22;20989;52.566;13.346;2022-08-03T08:26:47;26.60;43.80
34776;DHT22;20989;52.566;13.346;2022-08-03T08:29:48;26.60;43.80
34776;DHT22;20989;52.566;13.346;2022-08-03T08:32:49;26.60;43.90
34776;DHT22;20989;52.566;13.346;2022-08-03T08:35:51;26.60;43.60
34776;DHT22;20989;52.566;13.346;2022-08-03T08:38:52;26.60;43.70
34776;DHT22;20989;52.566;13.346;2022-08-03T08:41:53;26.60;43.70
34776;DHT22;20989;52.566;13.346;2022-08-03T08:44:54;26.60;43.70
34776;DHT22;20989;52.566;13.346;2022-08-03T08:47:56;26.60;43.70
34776;DHT22;20989;52.566;13.346;2022-08-03T08:50:59;26.60;43.70
34776;DHT22;20989;52.566;13.346;2022-08-03T08:54:01;26.60;43.70
34776;DHT22;20989;52.566;13.346;2022-08-03T08:57:04;26.60;43.60
34776;DHT22;20989;52.566;13.346;2022-08-03T09:00:08;26.60;44.10
34776;DHT22;20989;52.566;13.346;2022-08-03T09:03:13;26.70;43.60
34776;DHT22;20989;52.566;13.346;2022-08-03T09:06:14;26.60;43.50
34776;DHT22;20989;52.566;13.346;2022-08-03T09:09:15;26.60;43.50
34776;DHT22;20989;52.566;13.346;2022-08-03T09:12:16;26.60;43.50
34776;DHT22;20989;52.566;13.346;2022-08-03T09:15:30;26.60;44.00
34776;DHT22;20989;52.566;13.346;2022-08-03T09:18:31;26.60;43.50
34776;DHT22;20989;52.566;13.346;2022-08-03T09:21:32;26.70;43.50
34776;DHT22;20989;52.566;13.346;2022-08-03T09:24:33;26.70;43.50
34776;DHT22;20989;52.566;13.346;2022-08-03T09:27:44;26.70;43.50
34776;DHT22;20989;52.566;13.346;2022-08-03T09:30:57;26.70;43.50
34776;DHT22;20989;52.566;13.346;2022-08-03T09:34:06;26.70;43.60
34776;DHT22;20989;52.566;13.346;2022-08-03T09:37:13;26.70;43.60
34776;DHT22;20989;52.566;13.346;2022-08-03T09:40:33;26.60;43.50
34776;DHT22;20989;52.566;13.346;2022-08-03T09:43:45;26.60;43.50
34776;DHT22;20989;52.566;13.346;2022-08-03T09:46:53;26.70;43.60
34776;DHT22;20989;52.566;13.346;2022-08-03T09:50:02;26.70;43.60
34776;DHT22;20989;52.566;13.346;2022-08-03T09:53:03;26.70;43.60
34776;DHT22;20989;52.566;13.346;2022-08-03T09:56:04;26.70;43.60
34776;DHT22;20989;52.566;13.346;2022-08-03T09:59:04;26.70;43.50
34776;DHT22;20989;52.566;13.346;2022-08-03T10:02:22;26.70;43.60
34776;DHT22;20989;52.566;13.346;2022-08-03T10:05:31;26.70;43.60
34776;DHT22;20989;52.566;13.346;2022-08-03T10:08:32;26.70;43.60
34776;DHT22;20989;52.566;13.346;2022-08-03T10:11:33;26.70;43.50
34776;DHT22;20989;52.566;13.346;2022-08-03T10:14:40;26.70;43.50
34776;DHT22;20989;52.566;13.346;2022-08-03T10:17:41;26.70;43.50
34776;DHT22;20989;52.566;13.346;2022-08-03T10:20:54;26.70;43.50
34776;DHT22;20989;52.566;13.346;2022-08-03T10:24:00;26.80;43.50
34776;DHT22;20989;52.566;13.346;2022-08-03T10:27:04;26.70;43.50
34776;DHT22;20989;52.566;13.346;2022-08-03T10:30:07;26.70;43.40
34776;DHT22;20989;52.566;13.346;2022-08-03T10:33:20;26.80;43.50
34776;DHT22;20989;52.566;13.346;2022-08-03T10:36:23;26.70;43.40
34776;DHT22;20989;52.566;13.346;2022-08-03T10:39:26;26.80;43.50
34776;DHT22;20989;52.566;13.346;2022-08-03T10:42:28;26.70;43.40
34776;DHT22;20989;52.566;13.346;2022-08-03T10:45:33;26.80;43.50
34776;DHT22;20989;52.566;13.346;2022-08-03T10:48:36;26.80;43.50
34776;DHT22;20989;52.566;13.346;2022-08-03T10:51:37;26.80;43.50
34776;DHT22;20989;52.566;13.346;2022-08-03T10:54:45;26.80;43.50
34776;DHT22;20989;52.566;13.346;2022-08-03T10:58:04;26.80;43.50
34776;DHT22;20989;52.566;13.346;2022-08-03T11:01:11;26.80;43.50
34776;DHT22;20989;52.566;13.346;2022-08-03T11:04:17;26.80;43.40
34776;DHT22;20989;52.566;13.346;2022-08-03T11:07:23;26.80;43.40
34776;DHT22;20989;52.566;13.346;2022-08-03T11:10:30;26.80;43.50
34776;DHT22;20989;52.566;13.346;2022-08-03T11:13:31;26.80;43.40
34776;DHT22;20989;52.566;13.346;2022-08-03T11:16:35;26.80;43.40
34776;DHT22;20989;52.566;13.346;2022-08-03T11:19:47;26.80;43.40
34776;DHT22;20989;52.566;13.346;2022-08-03T11:22:49;26.80;43.40
34776;DHT22;20989;52.566;13.346;2022-08-03T11:29:29;26.90;43.50
34776;DHT22;20989;52.566;13.346;2022-08-03T11:35:58;26.90;43.50
34776;DHT22;20989;52.566;13.346;2022-08-03T11:39:12;26.90;43.50
34776;DHT22;20989;52.566;13.346;2022-08-03T11:45:27;26.90;43.40
34776;DHT22;20989;52.566;13.346;2022-08-03T11:48:35;26.90;43.40
34776;DHT22;20989;52.566;13.346;2022-08-03T11:51:37;26.90;43.40
34776;DHT22;20989;52.566;13.346;2022-08-03T11:54:39;26.90;43.40
34776;DHT22;20989;52.566;13.346;2022-08-03T11:57:40;26.90;43.40
34776;DHT22;20989;52.566;13.346;2022-08-03T12:00:41;26.90;43.40
34776;DHT22;20989;52.566;13.346;2022-08-03T12:03:42;26.90;43.30
34776;DHT22;20989;52.566;13.346;2022-08-03T12:06:58;26.90;43.40
34776;DHT22;20989;52.566;13.346;2022-08-03T12:10:06;26.90;43.40
34776;DHT22;20989;52.566;13.346;2022-08-03T12:13:07;26.90;43.40
34776;DHT22;20989;52.566;13.346;2022-08-03T12:16:08;26.90;43.40
34776;DHT22;20989;52.566;13.346;2022-08-03T12:19:09;26.90;43.40
34776;DHT22;20989;52.566;13.346;2022-08-03T12:22:09;27.00;43.40
34776;DHT22;20989;52.566;13.346;2022-08-03T12:25:20;26.90;43.40
34776;DHT22;20989;52.566;13.346;2022-08-03T12:28:21;26.90;43.30
34776;DHT22;20989;52.566;13.346;2022-08-03T12:31:23;27.00;43.40
34776;DHT22;20989;52.566;13.346;2022-08-03T12:34:44;27.00;43.40
34776;DHT22;20989;52.566;13.346;2022-08-03T12:37:47;27.00;43.40
34776;DHT22;20989;52.566;13.346;2022-08-03T12:40:55;27.00;43.40
34776;DHT22;20989;52.566;13.346;2022-08-03T12:43:56;27.00;43.40
34776;DHT22;20989;52.566;13.346;2022-08-03T12:46:58;27.00;43.30
34776;DHT22;20989;52.566;13.346;2022-08-03T12:49:59;27.00;43.30
34776;DHT22;20989;52.566;13.346;2022-08-03T12:53:02;27.00;43.30
34776;DHT22;20989;52.566;13.346;2022-08-03T12:56:04;27.00;43.40
34776;DHT22;20989;52.566;13.346;2022-08-03T12:59:43;27.00;43.30
34776;DHT22;20989;52.566;13.346;2022-08-03T13:03:05;27.00;43.30
34776;DHT22;20989;52.566;13.346;2022-08-03T13:06:13;27.00;43.30
34776;DHT22;20989;52.566;13.346;2022-08-03T13:09:14;27.00;43.30
34776;DHT22;20989;52.566;13.346;2022-08-03T13:12:22;27.00;43.30
34776;DHT22;20989;52.566;13.346;2022-08-03T13:15:23;27.00;43.30
34776;DHT22;20989;52.566;13.346;2022-08-03T13:18:25;27.00;43.30
34776;DHT22;20989;52.566;13.346;2022-08-03T13:21:26;27.00;43.30
34776;DHT22;20989;52.566;13.346;2022-08-03T13:24:27;27.10;43.40
34776;DHT22;20989;52.566;13.346;2022-08-03T13:27:29;27.00;43.40
34776;DHT22;20989;52.566;13.346;2022-08-03T13:30:30;27.00;43.30
34776;DHT22;20989;52.566;13.346;2022-08-03T13:33:31;27.00;43.30
34776;DHT22;20989;52.566;13.346;2022-08-03T13:36:32;27.00;43.30
34776;DHT22;20989;52.566;13.346;2022-08-03T13:39:32;27.10;43.40
34776;DHT22;20989;52.566;13.346;2022-08-03T13:42:34;27.00;43.80
34776;DHT22;20989;52.566;13.346;2022-08-03T13:45:35;27.10;43.30
34776;DHT22;20989;52.566;13.346;2022-08-03T13:48:36;27.10;43.30
34776;DHT22;20989;52.566;13.346;2022-08-03T13:51:37;27.10;43.30
34776;DHT22;20989;52.566;13.346;2022-08-03T13:54:37;27.10;43.30
34776;DHT22;20989;52.566;13.346;2022-08-03T13:57:38;27.10;43.30
34776;DHT22;20989;52.566;13.346;2022-08-03T14:00:38;27.10;43.40
34776;DHT22;20989;52.566;13.346;2022-08-03T14:03:39;27.10;43.30
34776;DHT22;20989;52.566;13.346;2022-08-03T14:06:40;27.10;43.40
34776;DHT22;20989;52.566;13.346;2022-08-03T14:09:40;27.10;43.30
34776;DHT22;20989;52.566;13.346;2022-08-03T14:12:41;27.10;43.30
34776;DHT22;20989;52.566;13.346;2022-08-03T14:15:42;27.10;43.30
34776;DHT22;20989;52.566;13.346;2022-08-03T14:18:42;27.20;43.40
34776;DHT22;20989;52.566;13.346;2022-08-03T14:21:43;27.10;43.30
34776;DHT22;20989;52.566;13.346;2022-08-03T14:24:44;27.10;43.30
34776;DHT22;20989;52.566;13.346;2022-08-03T14:27:44;27.10;43.20
34776;DHT22;20989;52.566;13.346;2022-08-03T14:30:45;27.10;43.20
34776;DHT22;20989;52.566;13.346;2022-08-03T14:33:47;27.10;43.30
34776;DHT22;20989;52.566;13.346;2022-08-03T14:36:47;27.10;43.30
34776;DHT22;20989;52.566;13.346;2022-08-03T14:39:48;27.20;43.40
34776;DHT22;20989;52.566;13.346;2022-08-03T14:42:48;27.10;43.30
34776;DHT22;20989;52.566;13.346;2022-08-03T14:45:51;27.20;43.40
34776;DHT22;20989;52.566;13.346;2022-08-03T14:48:52;27.20;43.30
34776;DHT22;20989;52.566;13.346;2022-08-03T14:51:53;27.20;43.30
34776;DHT22;20989;52.566;13.346;2022-08-03T14:54:53;27.20;43.40
34776;DHT22;20989;52.566;13.346;2022-08-03T14:57:54;27.20;43.40
34776;DHT22;20989;52.566;13.346;2022-08-03T15:00:55;27.20;43.40
34776;DHT22;20989;52.566;13.346;2022-08-03T15:03:56;27.20;43.30
34776;DHT22;20989;52.566;13.346;2022-08-03T15:06:56;27.20;43.30
34776;DHT22;20989;52.566;13.346;2022-08-03T15:09:57;27.20;43.30
34776;DHT22;20989;52.566;13.346;2022-08-03T15:12:58;27.20;43.40
34776;DHT22;20989;52.566;13.346;2022-08-03T15:15:59;27.20;43.40
34776;DHT22;20989;52.566;13.346;2022-08-03T15:19:00;27.20;43.30
34776;DHT22;20989;52.566;13.346;2022-08-03T15:22:00;27.20;43.30
34776;DHT22;20989;52.566;13.346;2022-08-03T15:25:05;27.20;43.30
34776;DHT22;20989;52.566;13.346;2022-08-03T15:28:05;27.20;43.30
34776;DHT22;20989;52.566;13.346;2022-08-03T15:31:06;27.20;43.30
34776;DHT22;20989;52.566;13.346;2022-08-03T15:34:07;27.20;43.30
34776;DHT22;20989;52.566;13.346;2022-08-03T15:37:07;27.20;43.30
34776;DHT22;20989;52.566;13.346;2022-08-03T15:40:08;27.20;43.30
34776;DHT22;20989;52.566;13.346;2022-08-03T15:43:09;27.20;43.30
34776;DHT22;20989;52.566;13.346;2022-08-03T15:46:11;27.20;43.30
34776;DHT22;20989;52.566;13.346;2022-08-03T15:49:12;27.30;43.30
34776;DHT22;20989;52.566;13.346;2022-08-03T15:52:13;27.30;43.30
34776;DHT22;20989;52.566;13.346;2022-08-03T15:55:14;27.30;43.30
34776;DHT22;20989;52.566;13.346;2022-08-03T15:58:14;27.30;43.30
34776;DHT22;20989;52.566;13.346;2022-08-03T16:01:15;27.30;43.30
34776;DHT22;20989;52.566;13.346;2022-08-03T16:04:16;27.30;43.30
34776;DHT22;20989;52.566;13.346;2022-08-03T16:07:16;27.30;43.40
34776;DHT22;20989;52.566;13.346;2022-08-03T16:10:37;27.30;43.30
34776;DHT22;20989;52.566;13.346;2022-08-03T16:13:37;27.30;43.30
34776;DHT22;20989;52.566;13.346;2022-08-03T16:16:38;27.40;43.40
34776;DHT22;20989;52.566;13.346;2022-08-03T16:19:40;27.40;43.40
34776;DHT22;20989;52.566;13.346;2022-08-03T16:22:45;27.30;43.20
34776;DHT22;20989;52.566;13.346;2022-08-03T16:25:46;27.30;43.20
34776;DHT22;20989;52.566;13.346;2022-08-03T16:28:46;27.30;43.20
34776;DHT22;20989;52.566;13.346;2022-08-03T16:31:48;27.30;43.30
34776;DHT22;20989;52.566;13.346;2022-08-03T16:34:48;27.30;43.30
34776;DHT22;20989;52.566;13.346;2022-08-03T16:37:49;27.30;43.30
34776;DHT22;20989;52.566;13.346;2022-08-03T16:40:50;27.30;43.30
34776;DHT22;20989;52.566;13.346;2022-08-03T16:43:51;27.30;43.30
34776;DHT22;20989;52.566;13.346;2022-08-03T16:46:51;27.30;43.80
34776;DHT22;20989;52.566;13.346;2022-08-03T16:49:52;27.30;43.30
34776;DHT22;20989;52.566;13.346;2022-08-03T16:52:52;27.30;43.30
34776;DHT22;20989;52.566;13.346;2022-08-03T16:55:53;27.30;43.30
34776;DHT22;20989;52.566;13.346;2022-08-03T16:58:54;27.30;43.30
34776;DHT22;20989;52.566;13.346;2022-08-03T17:01:54;27.30;43.30
34776;DHT22;20989;52.566;13.346;2022-08-03T17:04:56;27.30;43.30
34776;DHT22;20989;52.566;13.346;2022-08-03T17:07:57;27.30;43.30
34776;DHT22;20989;52.566;13.346;2022-08-03T17:10:58;27.30;43.30
34776;DHT22;20989;52.566;13.346;2022-08-03T17:13:59;27.30;43.30
34776;DHT22;20989;52.566;13.346;2022-08-03T17:17:03;27.30;43.30
34776;DHT22;20989;52.566;13.346;2022-08-03T17:20:06;27.30;43.30
34776;DHT22;20989;52.566;13.346;2022-08-03T17:26:25;27.30;43.30
34776;DHT22;20989;52.566;13.346;2022-08-03T17:29:27;27.30;43.30
34776;DHT22;20989;52.566;13.346;2022-08-03T17:32:32;27.30;43.30
34776;DHT22;20989;52.566;13.346;2022-08-03T17:35:33;27.30;43.30
34776;DHT22;20989;52.566;13.346;2022-08-03T17:38:37;27.30;43.80
34776;DHT22;20989;52.566;13.346;2022-08-03T17:41:38;27.30;43.30
34776;DHT22;20989;52.566;13.346;2022-08-03T17:44:39;27.30;43.20
34776;DHT22;20989;52.566;13.346;2022-08-03T17:47:41;27.30;43.20
34776;DHT22;20989;52.566;13.346;2022-08-03T17:50:49;27.30;43.30
34776;DHT22;20989;52.566;13.346;2022-08-03T17:53:57;27.30;43.80
34776;DHT22;20989;52.566;13.346;2022-08-03T17:57:09;27.30;43.40
34776;DHT22;20989;52.566;13.346;2022-08-03T18:00:15;27.30;43.30
34776;DHT22;20989;52.566;13.346;2022-08-03T18:03:49;27.30;43.30
34776;DHT22;20989;52.566;13.346;2022-08-03T18:06:52;27.30;43.30
34776;DHT22;20989;52.566;13.346;2022-08-03T18:09:56;27.30;43.40
34776;DHT22;20989;52.566;13.346;2022-08-03T18:13:08;27.30;43.30
34776;DHT22;20989;52.566;13.346;2022-08-03T18:16:11;27.40;43.40
34776;DHT22;20989;52.566;13.346;2022-08-03T18:19:15;27.30;43.40
34776;DHT22;20989;52.566;13.346;2022-08-03T18:22:19;27.30;43.30
34776;DHT22;20989;52.566;13.346;2022-08-03T18:25:20;27.40;43.90
34776;DHT22;20989;52.566;13.346;2022-08-03T18:28:24;27.30;43.30
34776;DHT22;20989;52.566;13.346;2022-08-03T18:31:25;27.30;43.40
34776;DHT22;20989;52.566;13.346;2022-08-03T18:34:29;27.30;43.30
34776;DHT22;20989;52.566;13.346;2022-08-03T18:37:31;27.30;43.40
34776;DHT22;20989;52.566;13.346;2022-08-03T18:40:33;27.30;43.40
34776;DHT22;20989;52.566;13.346;2022-08-03T18:43:37;27.30;43.40
34776;DHT22;20989;52.566;13.346;2022-08-03T18:46:45;27.30;43.50
34776;DHT22;20989;52.566;13.346;2022-08-03T18:50:02;27.30;43.50
34776;DHT22;20989;52.566;13.346;2022-08-03T18:53:14;27.30;43.50
34776;DHT22;20989;52.566;13.346;2022-08-03T18:57:20;27.30;43.50
34776;DHT22;20989;52.566;13.346;2022-08-03T18:59:58;27.30;43.50
34776;DHT22;20989;52.566;13.346;2022-08-03T19:03:02;27.30;43.50
34776;DHT22;20989;52.566;13.346;2022-08-03T19:06:15;27.30;43.50
34776;DHT22;20989;52.566;13.346;2022-08-03T19:13:00;27.30;43.50
34776;DHT22;20989;52.566;13.346;2022-08-03T19:16:02;27.30;43.50
34776;DHT22;20989;52.566;13.346;2022-08-03T19:19:04;27.30;43.50
34776;DHT22;20989;52.566;13.346;2022-08-03T19:22:08;27.30;43.50
34776;DHT22;20989;52.566;13.346;2022-08-03T19:25:09;27.30;43.50
34776;DHT22;20989;52.566;13.346;2022-08-03T19:28:10;27.30;43.50